Time;durP1;ratioP1;P1;durP2;ratioP2;P2;SDS_P1;SDS_P2;PMS_P1;PMS_P2;Temp;Humidity;BMP_temperature;BMP_pressure;BME280_temperature;BME280_humidity;BME280_pressure;Samples;Min_cycle;Max_cycle;Signal;HPM_P1;HPM_P2
2023/04/14 00:00:28;;;;;;;55.72;49.78;;;;;;;5.73;100.00;100225.78;6243571;23;20478;-90
2023/04/14 00:02:55;;;;;;;61.15;55.00;;;;;;;5.60;100.00;100223.00;6243659;23;20028;-91
2023/04/14 00:05:28;;;;;;;58.33;52.63;;;;;;;5.75;100.00;100225.63;6243758;23;20031;-90
2023/04/14 00:07:55;;;;;;;56.47;50.30;;;;;;;5.70;100.00;100214.81;6243973;23;20022;-92
2023/04/14 00:13:07;;;;;;;58.95;53.35;;;;;;;5.52;100.00;100212.56;6240890;22;20095;-90
2023/04/14 00:15:35;;;;;;;51.75;46.42;;;;;;;5.40;100.00;100217.50;6243726;23;20027;-90
2023/04/14 00:18:02;;;;;;;52.45;46.95;;;;;;;5.51;100.00;100210.94;6244058;22;20024;-91
2023/04/14 00:20:29;;;;;;;56.35;50.70;;;;;;;5.56;100.00;100215.66;6243675;23;20049;-90
2023/04/14 00:22:55;;;;;;;55.92;50.40;;;;;;;5.73;100.00;100217.88;6243647;23;20078;-90
2023/04/14 00:25:22;;;;;;;50.80;45.42;;;;;;;5.64;100.00;100215.56;6243801;23;20486;-90
2023/04/14 00:27:49;;;;;;;53.47;48.08;;;;;;;5.59;100.00;100212.66;6243420;23;20021;-90
2023/04/14 00:30:16;;;;;;;52.90;47.70;;;;;;;5.54;100.00;100220.28;6243123;23;20499;-90
2023/04/14 00:32:44;;;;;;;58.10;52.20;;;;;;;5.67;100.00;100212.53;6243549;22;20040;-91
2023/04/14 00:35:11;;;;;;;58.42;52.38;;;;;;;5.72;100.00;100215.44;6243149;22;20031;-91
2023/04/14 00:37:38;;;;;;;70.38;63.50;;;;;;;5.68;100.00;100214.97;6243059;23;20520;-90
2023/04/14 00:40:08;;;;;;;63.65;57.15;;;;;;;5.75;100.00;100212.44;6243367;23;20024;-91
2023/04/14 00:42:42;;;;;;;56.58;50.88;;;;;;;5.89;100.00;100216.00;6243599;23;20024;-90
2023/04/14 00:45:09;;;;;;;52.80;47.42;;;;;;;5.38;100.00;100221.31;6243170;23;20390;-90
2023/04/14 00:47:36;;;;;;;53.80;48.30;;;;;;;5.45;100.00;100225.66;6243502;23;20024;-91
2023/04/14 00:50:06;;;;;;;55.28;49.58;;;;;;;5.33;100.00;100219.25;6243433;23;20475;-90
2023/04/14 00:52:33;;;;;;;64.82;58.22;;;;;;;5.45;100.00;100222.22;6242910;23;20016;-90
2023/04/14 00:55:01;;;;;;;60.63;54.63;;;;;;;5.39;100.00;100222.97;6243279;23;20024;-91
2023/04/14 00:57:29;;;;;;;59.95;53.67;;;;;;;5.43;100.00;100214.50;6243489;23;20052;-90
2023/04/14 00:59:58;;;;;;;62.10;56.10;;;;;;;5.26;100.00;100207.78;6242636;22;20024;-90
2023/04/14 01:02:25;;;;;;;65.32;58.95;;;;;;;5.25;100.00;100208.81;6243009;22;20016;-90
2023/04/14 01:04:52;;;;;;;75.90;69.28;;;;;;;5.25;100.00;100199.09;6242826;23;20027;-91
2023/04/14 01:07:22;;;;;;;60.63;54.58;;;;;;;5.26;100.00;100192.84;6242622;23;20019;-90
2023/04/14 01:09:49;;;;;;;57.22;50.80;;;;;;;5.24;100.00;100192.19;6243537;23;20020;-91
2023/04/14 01:12:34;;;;;;;74.00;67.15;;;;;;;5.31;100.00;100200.16;6243449;23;20020;-91
2023/04/14 01:15:11;;;;;;;65.15;58.55;;;;;;;5.31;100.00;100199.34;6243018;23;20048;-91
2023/04/14 01:17:45;;;;;;;81.25;74.43;;;;;;;5.24;100.00;100188.75;6243257;23;20086;-90
2023/04/14 01:23:56;;;;;;;62.17;56.40;;;;;;;5.15;100.00;100188.03;6240795;22;20055;-91
2023/04/14 01:26:40;;;;;;;68.78;63.28;;;;;;;4.94;100.00;100186.13;6243115;23;20024;-91
2023/04/14 01:32:53;;;;;;;66.15;60.25;;;;;;;5.03;100.00;100185.03;6239351;22;20031;-90
2023/04/14 01:35:55;;;;;;;70.80;64.65;;;;;;;5.07;100.00;100184.66;6243086;22;20103;-90
2023/04/14 01:41:16;;;;;;;;;;;;;;;5.07;100.00;100190.75;6239649;23;20035;-91
2023/04/14 01:43:49;;;;;;;60.80;55.00;;;;;;;5.05;100.00;100193.56;6242845;23;19966;-90
2023/04/14 01:46:17;;;;;;;62.25;56.25;;;;;;;4.90;100.00;100184.88;6242489;23;20498;-91
2023/04/14 01:48:46;;;;;;;60.67;55.15;;;;;;;4.76;100.00;100183.84;6242701;23;20039;-90
2023/04/14 01:51:17;;;;;;;94.13;86.43;;;;;;;4.94;100.00;100178.25;6242575;23;20095;-91
2023/04/14 01:53:46;;;;;;;61.75;55.58;;;;;;;4.95;100.00;100179.03;6242864;23;20099;-90
2023/04/14 01:56:16;;;;;;;73.05;65.05;;;;;;;4.94;100.00;100180.88;6242682;22;20034;-91
2023/04/14 01:58:43;;;;;;;79.32;62.38;;;;;;;4.84;100.00;100185.56;6242983;23;20463;-91
2023/04/14 02:01:10;;;;;;;94.00;72.78;;;;;;;4.89;100.00;100182.41;6242822;23;20027;-90
2023/04/14 02:03:39;;;;;;;138.85;88.82;;;;;;;5.04;100.00;100177.94;6242637;23;20078;-90
2023/04/14 02:06:10;;;;;;;104.03;74.47;;;;;;;4.96;100.00;100175.41;6243103;23;20074;-91
2023/04/14 02:08:41;;;;;;;109.25;74.25;;;;;;;4.67;100.00;100186.75;6243344;23;20024;-91
2023/04/14 02:11:11;;;;;;;102.00;70.72;;;;;;;5.06;100.00;100178.59;6242430;22;20022;-92
2023/04/14 02:13:41;;;;;;;75.15;65.95;;;;;;;4.91;100.00;100180.41;6242082;23;20020;-90
2023/04/14 02:16:10;;;;;;;84.22;76.03;;;;;;;5.07;100.00;100174.97;6242223;23;20024;-90
2023/04/14 02:18:39;;;;;;;83.43;74.95;;;;;;;5.04;100.00;100180.59;6242910;23;20020;-91
2023/04/14 02:21:09;;;;;;;73.65;66.10;;;;;;;4.99;100.00;100181.16;6242453;23;20232;-91
2023/04/14 02:23:35;;;;;;;71.75;64.13;;;;;;;4.94;100.00;100174.78;6243171;23;20023;-91
2023/04/14 02:26:09;;;;;;;127.43;110.43;;;;;;;4.93;100.00;100183.66;6242700;23;20082;-91
2023/04/14 02:28:41;;;;;;;96.18;73.40;;;;;;;5.04;100.00;100172.69;6242671;23;20024;-90
2023/04/14 02:31:15;;;;;;;87.57;72.13;;;;;;;5.12;100.00;100172.59;6242154;23;20024;-91
2023/04/14 02:33:44;;;;;;;89.05;77.72;;;;;;;5.12;100.00;100175.22;6242525;22;20093;-90
2023/04/14 02:36:16;;;;;;;83.13;70.75;;;;;;;5.03;100.00;100174.50;6242755;23;20016;-90
2023/04/14 02:38:48;;;;;;;70.60;62.92;;;;;;;5.17;100.00;100169.41;6242552;23;20042;-91
2023/04/14 02:41:22;;;;;;;85.93;76.10;;;;;;;5.14;100.00;100167.94;6242452;23;20446;-90
2023/04/14 02:43:54;;;;;;;83.70;74.63;;;;;;;5.14;100.00;100173.22;6242455;23;20031;-90
2023/04/14 02:46:23;;;;;;;95.22;77.07;;;;;;;5.18;100.00;100171.88;6242830;23;20024;-91
2023/04/14 02:48:53;;;;;;;78.28;66.47;;;;;;;5.09;100.00;100165.06;6242375;23;20024;-91
2023/04/14 02:51:24;;;;;;;70.68;63.10;;;;;;;5.06;100.00;100170.69;6242636;23;20027;-90
2023/04/14 02:53:54;;;;;;;79.95;72.55;;;;;;;4.59;100.00;100171.88;6241933;22;20083;-90
2023/04/14 02:56:22;;;;;;;71.53;63.90;;;;;;;4.95;100.00;100184.31;6242741;23;20020;-91
2023/04/14 02:58:49;;;;;;;67.45;60.75;;;;;;;4.99;100.00;100183.78;6242246;23;20043;-91
2023/04/14 03:01:18;;;;;;;67.57;60.33;;;;;;;4.91;100.00;100183.88;6242852;23;20478;-90
2023/04/14 03:03:45;;;;;;;63.35;56.42;;;;;;;4.94;100.00;100177.44;6242209;23;20020;-89
2023/04/14 03:06:15;;;;;;;67.30;60.03;;;;;;;4.98;100.00;100170.78;6242758;23;20028;-90
2023/04/14 03:08:45;;;;;;;65.68;58.67;;;;;;;4.70;100.00;100170.63;6242069;23;20103;-90
2023/04/14 03:11:13;;;;;;;61.83;55.10;;;;;;;4.76;100.00;100170.69;6242458;23;20229;-91
2023/04/14 03:13:42;;;;;;;74.95;67.28;;;;;;;4.94;100.00;100178.25;6242105;23;20020;-90
2023/04/14 03:16:10;;;;;;;69.22;61.85;;;;;;;4.67;100.00;100179.69;6242134;22;20020;-90
2023/04/14 03:18:38;;;;;;;82.85;73.88;;;;;;;4.93;100.00;100175.78;6241590;23;20024;-90
2023/04/14 03:21:06;;;;;;;72.43;64.72;;;;;;;5.16;100.00;100179.13;6242001;22;20023;-90
2023/04/14 03:23:34;;;;;;;59.65;53.47;;;;;;;4.39;100.00;100168.94;6242241;23;20031;-91
2023/04/14 03:26:04;;;;;;;66.32;59.55;;;;;;;4.56;100.00;100175.66;6242026;23;20016;-91
2023/04/14 03:28:35;;;;;;;64.90;58.30;;;;;;;4.64;100.00;100163.44;6244454;23;20505;-90
2023/04/14 03:31:05;;;;;;;66.97;60.40;;;;;;;4.94;100.00;100172.16;6243320;22;20024;-91
2023/04/14 03:33:32;;;;;;;67.60;61.10;;;;;;;4.90;100.00;100170.88;6244024;22;20031;-88
2023/04/14 03:36:00;;;;;;;65.63;59.30;;;;;;;5.05;100.00;100169.03;6244186;23;20020;-91
2023/04/14 03:38:28;;;;;;;61.63;55.63;;;;;;;5.16;100.00;100171.22;6243671;23;20020;-90
2023/04/14 03:40:59;;;;;;;56.80;51.17;;;;;;;5.23;100.00;100173.94;6244285;23;20095;-90
2023/04/14 03:43:32;;;;;;;56.72;51.00;;;;;;;5.39;100.00;100176.38;6244003;23;20028;-90
2023/04/14 03:45:59;;;;;;;55.92;50.30;;;;;;;5.38;100.00;100174.72;6243992;23;20024;-91
2023/04/14 03:48:28;;;;;;;57.85;52.33;;;;;;;5.56;100.00;100174.31;6243879;23;20020;-91
2023/04/14 03:50:58;;;;;;;61.25;53.25;;;;;;;5.44;100.00;100168.72;6243991;23;20031;-91
2023/04/14 03:53:27;;;;;;;55.33;49.38;;;;;;;5.46;100.00;100171.16;6243739;23;20044;-92
2023/04/14 03:55:58;;;;;;;53.45;48.00;;;;;;;5.38;100.00;100171.28;6244127;23;20016;-91
2023/04/14 03:58:28;;;;;;;62.97;56.63;;;;;;;5.25;100.00;100172.75;6243786;23;20020;-91
2023/04/14 04:00:57;;;;;;;50.90;45.80;;;;;;;4.90;100.00;100181.41;6243865;23;20127;-90
2023/04/14 04:03:26;;;;;;;56.78;51.30;;;;;;;4.73;100.00;100183.41;6243505;23;20016;-90
2023/04/14 04:05:53;;;;;;;58.47;52.88;;;;;;;4.92;100.00;100176.78;6243863;23;20035;-91
2023/04/14 04:08:22;;;;;;;69.55;63.22;;;;;;;5.24;100.00;100180.84;6243665;23;20024;-90
2023/04/14 04:10:50;;;;;;;69.88;63.60;;;;;;;5.57;100.00;100173.34;6243767;23;20024;-92
2023/04/14 04:13:19;;;;;;;67.03;61.20;;;;;;;5.79;100.00;100174.16;6243934;23;20481;-90
2023/04/14 04:15:48;;;;;;;57.88;52.25;;;;;;;5.80;100.00;100173.13;6243803;23;20020;-90
2023/04/14 04:18:18;;;;;;;62.92;56.55;;;;;;;6.03;100.00;100164.28;6243725;23;20094;-91
2023/04/14 04:20:47;;;;;;;57.60;52.38;;;;;;;6.24;100.00;100153.69;6243598;22;20066;-90
2023/04/14 04:23:17;;;;;;;71.50;64.78;;;;;;;6.35;100.00;100162.91;6244058;23;20039;-91
2023/04/14 04:25:44;;;;;;;66.93;60.42;;;;;;;6.41;100.00;100172.69;6244402;23;20020;-91
2023/04/14 04:28:10;;;;;;;67.63;61.35;;;;;;;6.61;100.00;100168.38;6243539;23;20016;-91
2023/04/14 04:30:40;;;;;;;65.07;58.70;;;;;;;6.69;100.00;100166.56;6243699;23;20051;-90
2023/04/14 04:33:07;;;;;;;61.72;56.03;;;;;;;6.81;100.00;100157.94;6128475;23;20243;-91
2023/04/14 04:35:36;;;;;;;65.65;59.75;;;;;;;6.92;100.00;100153.91;6211793;23;20021;-90
2023/04/14 04:38:04;;;;;;;64.45;58.83;;;;;;;6.99;100.00;100154.78;6212337;23;20024;-90
2023/04/14 04:40:37;;;;;;;61.90;56.35;;;;;;;6.95;100.00;100155.34;6212043;23;20017;-91
2023/04/14 04:43:03;;;;;;;60.03;55.03;;;;;;;6.94;100.00;100153.75;6212812;23;20032;-90
2023/04/14 04:45:45;;;;;;;60.95;55.95;;;;;;;7.23;100.00;100147.34;6213050;23;20430;-91
2023/04/14 04:48:12;;;;;;;58.30;53.10;;;;;;;7.37;100.00;100156.16;6212268;23;20028;-91
2023/04/14 04:50:40;;;;;;;56.25;51.03;;;;;;;7.40;100.00;100153.91;6213304;23;20017;-90
2023/04/14 04:53:07;;;;;;;58.80;53.63;;;;;;;7.42;100.00;100153.72;6213644;23;20388;-90
2023/04/14 04:55:34;;;;;;;74.35;66.78;;;;;;;7.39;100.00;100143.56;6213207;23;20075;-91
2023/04/14 04:58:01;;;;;;;67.63;60.67;;;;;;;7.27;100.00;100136.19;6212982;23;20426;-91
2023/04/14 05:00:27;;;;;;;63.58;56.28;;;;;;;7.31;100.00;100137.41;6212959;23;20024;-91
2023/04/14 05:02:55;;;;;;;81.97;66.18;;;;;;;7.27;100.00;100132.75;6210592;23;20035;-90
2023/04/14 05:05:22;;;;;;;75.53;67.47;;;;;;;7.44;100.00;100131.34;6211966;23;20031;-91
2023/04/14 05:07:50;;;;;;;72.72;65.90;;;;;;;7.72;100.00;100135.72;6210817;23;20023;-91
2023/04/14 05:10:17;;;;;;;72.05;65.22;;;;;;;7.97;100.00;100134.09;6211842;23;20021;-91
2023/04/14 05:12:44;;;;;;;69.20;63.22;;;;;;;8.14;100.00;100139.81;6212245;23;20020;-90
2023/04/14 05:15:11;;;;;;;64.07;58.83;;;;;;;8.27;100.00;100136.34;6212654;23;20020;-90
2023/04/14 05:17:38;;;;;;;59.92;54.63;;;;;;;8.44;100.00;100126.16;6212057;23;20025;-90
2023/04/14 05:20:06;;;;;;;64.15;58.75;;;;;;;8.75;100.00;100124.69;6212973;23;20326;-90
2023/04/14 05:22:33;;;;;;;62.60;57.15;;;;;;;8.85;100.00;100136.44;6211158;23;20017;-90
2023/04/14 05:25:01;;;;;;;65.97;60.08;;;;;;;8.96;100.00;100127.06;6211677;23;20078;-89
2023/04/14 05:27:28;;;;;;;62.05;56.35;;;;;;;9.03;100.00;100125.19;6212339;23;20475;-89
2023/04/14 05:29:55;;;;;;;61.42;55.97;;;;;;;9.14;100.00;100126.38;6212936;23;20017;-90
2023/04/14 05:32:21;;;;;;;58.03;52.78;;;;;;;9.15;100.00;100125.34;6212250;23;20103;-90
2023/04/14 05:34:48;;;;;;;58.00;52.70;;;;;;;9.37;100.00;100118.69;6212463;23;20495;-90
2023/04/14 05:37:15;;;;;;;57.35;51.78;;;;;;;9.46;100.00;100106.00;6212746;23;20025;-90
2023/04/14 05:39:42;;;;;;;68.55;62.78;;;;;;;9.78;100.00;100104.19;6210719;23;20025;-90
2023/04/14 05:42:11;;;;;;;64.45;59.03;;;;;;;10.05;100.00;100102.13;6210078;23;20020;-91
2023/04/14 05:44:37;;;;;;;64.32;59.22;;;;;;;10.31;100.00;100117.00;6210506;23;20107;-90
2023/04/14 05:47:04;;;;;;;64.05;58.75;;;;;;;10.51;100.00;100108.06;6210955;23;20021;-90
2023/04/14 05:49:35;;;;;;;63.28;58.38;;;;;;;10.66;100.00;100108.50;6210317;23;20027;-90
2023/04/14 05:52:02;;;;;;;62.50;57.35;;;;;;;10.63;100.00;100114.25;6210507;23;20021;-89
2023/04/14 05:54:29;;;;;;;56.97;51.83;;;;;;;10.72;100.00;100107.63;6211606;23;20024;-91
2023/04/14 05:56:56;;;;;;;57.55;52.50;;;;;;;10.88;100.00;100100.09;6213034;23;20027;-90
2023/04/14 05:59:27;;;;;;;53.45;49.00;;;;;;;10.89;100.00;100091.91;6212125;23;20028;-90
2023/04/14 06:01:54;;;;;;;57.25;52.63;;;;;;;10.93;100.00;100087.75;6212485;23;20017;-87
2023/04/14 06:04:21;;;;;;;60.17;55.35;;;;;;;11.17;100.00;100091.34;6212502;23;20471;-90
2023/04/14 06:06:48;;;;;;;63.80;58.60;;;;;;;11.48;100.00;100075.38;6212302;23;20020;-90
2023/04/14 06:09:15;;;;;;;62.53;57.47;;;;;;;11.77;100.00;100077.19;6212784;23;20336;-90
2023/04/14 06:11:42;;;;;;;67.65;62.30;;;;;;;11.98;100.00;100072.38;6212468;23;20040;-90
2023/04/14 06:14:08;;;;;;;65.20;60.10;;;;;;;12.33;100.00;100073.19;6213153;23;20124;-89
2023/04/14 06:16:37;;;;;;;60.58;55.63;;;;;;;12.73;100.00;100053.75;6212216;23;20074;-91
2023/04/14 06:19:04;;;;;;;49.53;45.60;;;;;;;12.82;100.00;100046.22;6212746;23;20024;-90
2023/04/14 06:21:31;;;;;;;49.83;45.72;;;;;;;13.07;100.00;100045.88;6212413;23;20091;-90
2023/04/14 06:23:58;;;;;;;47.80;43.88;;;;;;;13.28;100.00;100037.25;6212223;23;20024;-89
2023/04/14 06:26:25;;;;;;;50.78;46.47;;;;;;;13.58;100.00;100040.66;6212291;23;20367;-90
2023/04/14 06:28:52;;;;;;;46.35;42.63;;;;;;;13.79;100.00;100053.28;6212646;23;20023;-90
2023/04/14 06:31:19;;;;;;;44.30;40.60;;;;;;;13.80;100.00;100056.75;6212451;23;20025;-90
2023/04/14 06:33:47;;;;;;;43.85;40.28;;;;;;;14.15;100.00;100059.16;6212150;23;20020;-90
2023/04/14 06:36:17;;;;;;;42.05;38.63;;;;;;;14.21;100.00;100072.34;6212480;23;20020;-91
2023/04/14 06:38:43;;;;;;;48.55;44.65;;;;;;;14.43;100.00;100071.56;6211916;23;20020;-90
2023/04/14 06:41:10;;;;;;;46.58;42.55;;;;;;;14.61;100.00;100076.66;6212030;23;20020;-89
2023/04/14 06:43:37;;;;;;;37.80;34.80;;;;;;;14.44;100.00;100078.53;6212037;23;20395;-88
2023/04/14 06:46:04;;;;;;;39.17;36.15;;;;;;;14.48;100.00;100078.84;6211551;23;20016;-91
2023/04/14 06:48:31;;;;;;;32.40;29.88;;;;;;;14.08;100.00;100077.22;6211556;23;20016;-90
2023/04/14 06:51:00;;;;;;;35.22;32.33;;;;;;;14.52;100.00;100077.31;6212258;23;20032;-91
2023/04/14 06:53:27;;;;;;;38.33;34.92;;;;;;;14.43;100.00;100066.22;6211898;23;20039;-90
2023/04/14 06:55:59;;;;;;;52.70;48.60;;;;;;;15.35;100.00;100068.13;6212775;23;20033;-90
2023/04/14 06:58:26;;;;;;;41.05;37.75;;;;;;;14.64;100.00;100068.16;6212744;23;20030;-91
2023/04/14 07:00:55;;;;;;;34.97;31.90;;;;;;;15.08;100.00;100059.28;6212402;23;20043;-91
2023/04/14 07:03:22;;;;;;;48.25;44.60;;;;;;;15.80;100.00;100068.81;6213257;23;20024;-90
2023/04/14 07:05:48;;;;;;;45.65;42.35;;;;;;;15.40;100.00;100063.88;6212427;23;20455;-91
2023/04/14 07:08:18;;;;;;;42.17;38.63;;;;;;;15.31;100.00;100053.66;6212923;23;20044;-90
2023/04/14 07:10:44;;;;;;;39.40;36.15;;;;;;;16.25;100.00;100073.69;6213864;23;20284;-90
2023/04/14 07:13:11;;;;;;;34.55;31.85;;;;;;;16.41;100.00;100074.56;6212076;23;20035;-90
2023/04/14 07:15:38;;;;;;;30.67;28.48;;;;;;;15.65;100.00;100071.34;6213456;23;20526;-91
2023/04/14 07:18:05;;;;;;;34.08;31.17;;;;;;;16.09;100.00;100071.94;6213908;23;20796;-90
2023/04/14 07:20:32;;;;;;;39.58;35.90;;;;;;;16.67;100.00;100054.06;6212720;23;20545;-91
2023/04/14 07:22:59;;;;;;;50.40;46.40;;;;;;;16.77;100.00;100047.94;6213177;23;20371;-90
2023/04/14 07:25:30;;;;;;;34.30;31.17;;;;;;;16.16;100.00;100044.97;6212740;23;20024;-90
2023/04/14 07:27:56;;;;;;;36.38;33.15;;;;;;;16.81;100.00;100038.31;6212816;23;20356;-91
2023/04/14 07:30:23;;;;;;;39.40;36.10;;;;;;;17.24;100.00;100032.75;6213645;23;20016;-91
2023/04/14 07:32:51;;;;;;;29.25;27.00;;;;;;;16.22;100.00;100036.69;6213530;23;20017;-90
2023/04/14 07:35:18;;;;;;;34.70;31.70;;;;;;;17.48;100.00;100028.50;6211926;23;20387;-90
2023/04/14 07:37:44;;;;;;;32.65;30.13;;;;;;;17.28;100.00;100021.25;6212914;23;20253;-90
2023/04/14 07:40:12;;;;;;;31.08;28.67;;;;;;;16.91;100.00;100021.44;6213859;23;20025;-90
2023/04/14 07:42:40;;;;;;;29.95;27.45;;;;;;;17.69;100.00;100009.69;6213413;23;20031;-91
2023/04/14 07:45:08;;;;;;;29.67;27.38;;;;;;;17.32;100.00;100011.56;6212403;23;20463;-91
2023/04/14 07:47:35;;;;;;;30.25;27.85;;;;;;;18.48;100.00;100002.81;6212636;23;20028;-91
2023/04/14 07:50:02;;;;;;;27.77;25.63;;;;;;;17.90;100.00;99989.00;6212655;23;20087;-90
2023/04/14 07:52:29;;;;;;;26.90;24.95;;;;;;;18.71;100.00;99985.22;6212586;23;20558;-90
2023/04/14 07:54:56;;;;;;;27.92;25.58;;;;;;;18.80;100.00;99972.03;6211622;23;20020;-91
2023/04/14 07:57:23;;;;;;;28.23;26.02;;;;;;;18.41;100.00;99983.47;6211601;23;20379;-90
2023/04/14 07:59:51;;;;;;;26.50;24.60;;;;;;;17.91;100.00;99980.66;6211164;23;20096;-91
2023/04/14 08:02:18;;;;;;;24.38;22.52;;;;;;;19.01;100.00;99978.09;6211559;23;20028;-90
2023/04/14 08:04:45;;;;;;;28.02;26.02;;;;;;;18.99;100.00;99972.97;6211071;23;20117;-90
2023/04/14 08:07:12;;;;;;;32.15;29.85;;;;;;;17.71;100.00;99973.44;6211812;23;20017;-91
2023/04/14 08:09:39;;;;;;;30.80;28.38;;;;;;;18.43;100.00;99963.31;6211147;23;20079;-91
2023/04/14 08:12:06;;;;;;;31.98;29.75;;;;;;;19.77;100.00;99965.88;6210662;23;20021;-90
2023/04/14 08:14:33;;;;;;;27.33;25.25;;;;;;;19.78;100.00;99964.78;6211641;23;20542;-90
2023/04/14 08:17:01;;;;;;;28.90;26.80;;;;;;;19.53;100.00;99949.66;6212191;23;20020;-91
2023/04/14 08:19:29;;;;;;;31.63;29.13;;;;;;;20.03;100.00;99958.31;6212576;23;20017;-90
2023/04/14 08:21:56;;;;;;;29.35;27.20;;;;;;;19.37;100.00;99963.25;6212186;23;20074;-90
2023/04/14 08:24:23;;;;;;;30.65;28.35;;;;;;;18.71;100.00;99953.75;6212795;23;20050;-91
2023/04/14 08:26:49;;;;;;;31.40;29.00;;;;;;;19.70;100.00;99958.16;6213704;23;20079;-91
2023/04/14 08:29:16;;;;;;;27.65;25.58;;;;;;;16.66;100.00;99941.69;6212825;23;20016;-90
2023/04/14 08:31:43;;;;;;;33.03;30.38;;;;;;;18.02;100.00;99941.16;6211815;23;20017;-91
2023/04/14 08:34:12;;;;;;;32.25;29.75;;;;;;;18.96;100.00;99941.25;6212666;23;20021;-90
2023/04/14 08:36:38;;;;;;;31.95;29.55;;;;;;;20.08;100.00;99952.88;6213272;23;20104;-91
2023/04/14 08:39:05;;;;;;;30.92;28.50;;;;;;;20.65;100.00;99950.31;6212179;23;20043;-91
2023/04/14 08:41:34;;;;;;;30.95;28.65;;;;;;;20.34;100.00;99953.38;6212023;23;20028;-91
2023/04/14 08:44:01;;;;;;;27.88;25.83;;;;;;;19.44;100.00;99952.97;6212773;23;20029;-91
2023/04/14 08:46:28;;;;;;;26.77;24.67;;;;;;;20.53;100.00;99948.84;6212275;23;20021;-90
2023/04/14 08:49:03;;;;;;;24.27;22.02;;;;;;;20.21;100.00;99952.19;6206860;23;20025;-91
2023/04/14 08:51:34;;;;;;;24.17;21.95;;;;;;;21.26;100.00;99944.75;6208247;23;20055;-90
2023/04/14 08:54:03;;;;;;;41.80;33.97;;;;;;;21.58;100.00;99945.88;6209030;23;20020;-91
2023/04/14 08:56:33;;;;;;;49.53;39.13;;;;;;;20.84;100.00;99929.50;6202951;23;20028;-91
2023/04/14 08:59:01;;;;;;;48.67;40.10;;;;;;;20.17;100.00;99931.47;6209216;23;20028;-91
2023/04/14 09:01:28;;;;;;;46.75;39.15;;;;;;;20.52;100.00;99909.47;6207022;23;20409;-90
2023/04/14 09:03:56;;;;;;;38.38;31.60;;;;;;;21.10;100.00;99896.72;6208924;23;20024;-91
2023/04/14 09:06:23;;;;;;;38.72;31.40;;;;;;;21.66;100.00;99901.94;6209259;23;20024;-90
2023/04/14 09:08:52;;;;;;;40.55;32.00;;;;;;;21.60;96.21;99894.22;6208281;23;20095;-91
2023/04/14 09:11:19;;;;;;;43.60;35.03;;;;;;;21.44;100.00;99905.31;6208849;23;20405;-90
2023/04/14 09:13:49;;;;;;;44.10;36.60;;;;;;;21.88;100.00;99903.97;6208653;23;20032;-91
2023/04/14 09:16:17;;;;;;;22.50;20.60;;;;;;;22.07;84.58;99911.16;6209013;23;20028;-91
2023/04/14 09:18:44;;;;;;;23.52;21.55;;;;;;;21.79;85.21;99908.47;6209076;23;20132;-90
2023/04/14 09:21:11;;;;;;;22.10;20.13;;;;;;;21.01;97.41;99902.00;6208452;23;20087;-90
2023/04/14 09:23:40;;;;;;;21.77;19.90;;;;;;;21.20;100.00;99901.94;6209767;23;20613;-91
2023/04/14 09:26:10;;;;;;;21.70;20.08;;;;;;;21.08;100.00;99904.31;6208624;23;20036;-91
2023/04/14 09:28:37;;;;;;;24.13;22.13;;;;;;;21.04;100.00;99888.69;6209174;23;20506;-91
2023/04/14 09:31:04;;;;;;;21.92;20.13;;;;;;;20.99;100.00;99879.88;6209332;23;20541;-91
2023/04/14 09:33:32;;;;;;;23.70;21.60;;;;;;;20.30;100.00;99888.44;6208029;23;20024;-90
2023/04/14 09:36:00;;;;;;;22.67;20.98;;;;;;;20.41;100.00;99880.22;6208970;23;20027;-91
2023/04/14 09:38:34;;;;;;;22.70;20.80;;;;;;;19.98;100.00;99889.13;6208305;23;20017;-92
2023/04/14 09:41:01;;;;;;;22.52;20.75;;;;;;;20.50;100.00;99889.25;6208313;23;20024;-92
2023/04/14 09:43:30;;;;;;;24.23;22.13;;;;;;;19.62;100.00;99891.41;6208401;23;20195;-91
2023/04/14 09:45:58;;;;;;;21.92;20.13;;;;;;;20.24;100.00;99889.63;6208598;23;20530;-91
2023/04/14 09:48:25;;;;;;;23.98;21.55;;;;;;;19.89;100.00;99888.94;6207669;23;20031;-90
2023/04/14 09:51:00;;;;;;;23.35;21.52;;;;;;;20.32;100.00;99883.56;6208542;23;20103;-89
2023/04/14 09:53:28;;;;;;;22.48;20.48;;;;;;;20.33;100.00;99870.88;6209371;23;20021;-90
2023/04/14 09:55:56;;;;;;;21.80;20.02;;;;;;;19.81;100.00;99878.81;6208961;23;20020;-90
2023/04/14 09:58:23;;;;;;;24.38;22.15;;;;;;;20.32;100.00;99871.97;6208527;23;20451;-90
2023/04/14 10:00:51;;;;;;;30.65;27.73;;;;;;;20.38;100.00;99861.91;6208476;23;20035;-90
2023/04/14 10:03:32;;;;;;;25.00;22.55;;;;;;;19.71;100.00;99865.47;6208676;23;20048;-90
2023/04/14 10:05:59;;;;;;;23.48;21.48;;;;;;;20.43;100.00;99856.47;6208836;23;20024;-91
2023/04/14 10:08:35;;;;;;;23.65;21.65;;;;;;;20.30;100.00;99866.06;6207848;23;20083;-91
2023/04/14 10:11:15;;;;;;;22.52;20.58;;;;;;;20.56;100.00;99863.84;6208408;23;20082;-91
2023/04/14 10:13:42;;;;;;;21.50;19.83;;;;;;;20.90;100.00;99862.75;6207780;23;20059;-91
2023/04/14 10:16:10;;;;;;;23.08;21.17;;;;;;;21.01;100.00;99870.41;6210524;23;20028;-90
2023/04/14 10:18:37;;;;;;;22.42;20.63;;;;;;;20.01;100.00;99885.84;6207390;23;20016;-89
2023/04/14 10:21:05;;;;;;;21.73;19.92;;;;;;;19.90;100.00;99893.25;6209973;23;20078;-89
2023/04/14 10:23:32;;;;;;;26.58;24.42;;;;;;;20.20;100.00;99893.97;6207579;23;20096;-91
2023/04/14 10:26:00;;;;;;;26.80;24.30;;;;;;;20.34;100.00;99899.47;6211369;23;20031;-90
2023/04/14 10:28:29;;;;;;;23.60;21.77;;;;;;;19.89;100.00;99902.44;6212035;23;20024;-91
2023/04/14 10:30:58;;;;;;;26.13;23.67;;;;;;;20.08;100.00;99890.88;6212155;23;20422;-91
2023/04/14 10:33:26;;;;;;;27.15;24.63;;;;;;;21.24;100.00;99887.56;6211651;23;20075;-91
2023/04/14 10:35:59;;;;;;;24.95;22.75;;;;;;;21.47;100.00;99896.63;6211298;23;20028;-90
2023/04/14 10:38:45;;;;;;;27.52;25.23;;;;;;;21.49;100.00;99880.13;6211341;23;20017;-90
2023/04/14 10:41:12;;;;;;;23.98;21.88;;;;;;;22.75;92.31;99885.06;6211957;23;20471;-90
2023/04/14 10:43:40;;;;;;;23.08;21.17;;;;;;;23.11;98.48;99890.44;6212266;23;20016;-90
2023/04/14 10:46:09;;;;;;;26.15;24.15;;;;;;;22.71;94.26;99903.03;6211191;23;20092;-90
2023/04/14 10:48:40;;;;;;;25.70;23.67;;;;;;;21.79;100.00;99902.28;6212180;23;20079;-90
2023/04/14 10:52:09;;;;;;;21.90;20.00;;;;;;;21.30;100.00;99901.75;6210931;23;20044;-89
2023/04/14 10:54:53;;;;;;;22.83;20.95;;;;;;;21.10;100.00;99912.94;6127425;23;20048;-90
2023/04/14 10:57:22;;;;;;;21.50;19.50;;;;;;;21.67;100.00;99918.97;6209837;23;20021;-91
2023/04/14 11:00:55;;;;;;;20.92;19.20;;;;;;;21.75;100.00;99914.75;6210870;23;20016;-89
2023/04/14 11:03:22;;;;;;;22.02;20.13;;;;;;;21.35;100.00;99917.09;6119110;23;20021;-91
2023/04/14 11:05:51;;;;;;;22.50;20.60;;;;;;;20.53;100.00;99913.78;6211605;23;20024;-91
2023/04/14 12:03:09;;;;;;;24.67;22.38;;;;;;;21.18;100.00;99912.22;6051940;23;20033;-91
2023/04/14 12:05:37;;;;;;;24.52;22.00;;;;;;;20.99;100.00;99909.56;6144686;23;20021;-92
2023/04/14 12:08:06;;;;;;;24.00;21.85;;;;;;;21.07;100.00;99913.50;6210775;23;20017;-91
2023/04/14 12:10:33;;;;;;;25.33;22.73;;;;;;;20.98;100.00;99910.69;6214079;23;20545;-90
2023/04/14 12:13:01;;;;;;;25.95;23.45;;;;;;;20.86;100.00;99911.13;6211662;23;20086;-91
2023/04/14 12:15:29;;;;;;;25.55;23.25;;;;;;;20.77;100.00;99912.91;6211062;23;20024;-91
2023/04/14 12:17:56;;;;;;;24.95;22.48;;;;;;;20.34;100.00;99918.31;6211536;23;20072;-91
2023/04/14 12:20:23;;;;;;;25.40;23.08;;;;;;;20.63;100.00;99920.09;6211282;23;20519;-91
2023/04/14 12:22:51;;;;;;;25.90;23.52;;;;;;;20.47;100.00;99916.81;6209680;23;20020;-91